TFFFTLPC

Guest
Details From TFFF - Martinique/Aime Cesaire Intl
To TLPC - Castries/George F L Charles
Flight Number -
Tags decoded
Created
Modified
Stats Distance 34 nm / 64 km
Max Altitude 0 ft / 0 m
Waypoints 2
Social Downloads 0
Likes 0
Share VATSIM

Download

Looking for another format? Having issues loading an existing format? Contact us
Advertisement - Login to hide

Notes

Requested: TFFF BORUS TLPC

Route

TFFF TLPC

ID Type Via Altitude Latitude Longitude Leg Dist Tot Dist Heading (true) Name
O TFFF APT - 0 ft / 0 m 14.59103˚ -61.00317˚ - 0 nm - Martinique/Aime Cesaire Intl
O TLPC APT - 0 ft / 0 m 14.01970˚ -60.99339˚ 34 nm 34 nm 179° / 179° Castries/George F L Charles

Altitude Profile

Advertisement - Login to hide

TFFF

Details ICAO TFFF (FDF)
Name Martinique/Aime Cesaire Intl
Region France (Guadeloupe, Martinique, Saint Barthélemy, Saint Martin)
Timezone America/Martinique (UTC-4.0)
Stats Elevation 16 ft / 5 m (AMSL)
Location 14.591032° -61.003173°
Runways 1
Magnetic Variation 15.071° W

METAR

TFFF 221000Z AUTO 02002KT 9999 FEW023/// ///CB 23/22 Q1015 TEMPO 3000 SHRA

Decode

TAF

TAF TFFF 220500Z 2206/2306 09008KT 9999 SCT025 PROB40 TEMPO 2206/2220 3000 SHRA BKN018CB

Decode

Departure Runways

ID Width Length Bearing (true) Bearing (mag) Surface Threshold Offset Overrun Length
09 148 ft / 45 m 9,852 ft / 3,003 m 79.93° 95.00° Asphalt 0 ft / 0 m 0 ft / 0 m
27 148 ft / 45 m 9,852 ft / 3,003 m 259.94° 275.01° Asphalt 820 ft / 250 m 948 ft / 289 m

TLPC

Details ICAO TLPC (SLU)
Name Castries/George F L Charles
Region Saint Lucia
Timezone America/St_Lucia (UTC-4.0)
Stats Elevation 22 ft / 7 m (AMSL)
Location 14.019704° -60.993394°
Runways 1
Magnetic Variation 15.087° W

METAR

TLPC 221000Z 11008KT 9999 FEW023 26/23 Q1015 NOSIG

Decode

TAF

TAF TAF TLPC 220500Z 2206/2306 10006KT 9999 SCT024 TEMPO 2206/2218 SHRA BKN018TCU SCT038

Decode

Destination Runways

ID Width Length Bearing (true) Bearing (mag) Surface Threshold Offset Overrun Length
09 148 ft / 45 m 5,731 ft / 1,747 m 75.34° 90.43° Asphalt 400 ft / 122 m 0 ft / 0 m
27 148 ft / 45 m 5,731 ft / 1,747 m 255.34° 270.43° Asphalt 925 ft / 282 m 0 ft / 0 m

Popular Alternatives